Time;durP1;ratioP1;P1;durP2;ratioP2;P2;SDS_P1;SDS_P2;PMS_P1;PMS_P2;Temp;Humidity;BMP_temperature;BMP_pressure;BME280_temperature;BME280_humidity;BME280_pressure;Samples;Min_cycle;Max_cycle;Signal;HPM_P1;HPM_P2
2021/08/30 00:02:24;;;;;;;4.43;2.78;;;21.10;94.60;;;;;;4972618;28;20027;-87
2021/08/30 00:04:50;;;;;;;3.65;2.40;;;21.10;94.60;;;;;;4972438;28;20023;-81
2021/08/30 00:07:15;;;;;;;5.68;2.92;;;21.10;94.70;;;;;;4972855;28;20031;-86
2021/08/30 00:09:41;;;;;;;5.57;2.47;;;21.10;94.70;;;;;;4972315;28;20420;-76
2021/08/30 00:12:07;;;;;;;5.68;2.95;;;21.10;94.70;;;;;;4972838;28;20041;-81
2021/08/30 00:14:33;;;;;;;4.25;2.65;;;21.10;94.70;;;;;;4972515;28;20061;-85
2021/08/30 00:17:00;;;;;;;6.40;2.95;;;21.10;94.70;;;;;;4972298;28;20121;-78
2021/08/30 00:19:26;;;;;;;4.43;2.97;;;21.10;94.70;;;;;;4972209;28;20115;-78
2021/08/30 00:21:52;;;;;;;6.25;3.22;;;21.00;94.70;;;;;;4971606;28;20392;-82
2021/08/30 00:24:23;;;;;;;4.50;2.60;;;21.00;94.80;;;;;;4971927;28;20042;-83
2021/08/30 00:26:49;;;;;;;5.57;2.97;;;21.00;94.80;;;;;;4971768;28;20035;-79
2021/08/30 00:29:15;;;;;;;5.07;2.25;;;21.00;94.90;;;;;;4971937;28;20395;-81
2021/08/30 00:31:41;;;;;;;6.15;3.50;;;21.00;94.90;;;;;;4972288;28;20031;-80
2021/08/30 00:34:07;;;;;;;4.70;3.03;;;21.00;94.90;;;;;;4972893;28;20105;-81
2021/08/30 00:36:32;;;;;;;3.50;2.47;;;21.00;94.90;;;;;;4975358;28;20082;-83
2021/08/30 00:38:58;;;;;;;3.72;2.40;;;21.00;94.90;;;;;;4975193;28;20037;-85
2021/08/30 00:41:25;;;;;;;3.50;2.63;;;21.00;94.90;;;;;;4975251;28;20518;-84
2021/08/30 00:43:53;;;;;;;4.38;3.25;;;21.00;94.90;;;;;;4975154;28;20141;-80
2021/08/30 00:46:19;;;;;;;3.38;2.65;;;21.00;94.90;;;;;;4975314;28;20019;-75
2021/08/30 00:48:47;;;;;;;4.50;2.78;;;21.00;94.90;;;;;;4957594;28;20501;-83
2021/08/30 00:51:18;;;;;;;5.50;3.38;;;21.00;94.90;;;;;;4975491;28;20082;-85
2021/08/30 00:53:45;;;;;;;4.13;2.55;;;21.00;94.90;;;;;;4975304;28;20022;-77
2021/08/30 00:56:12;;;;;;;3.90;2.42;;;21.00;94.90;;;;;;4975396;28;20034;-78
2021/08/30 00:58:40;;;;;;;5.95;3.13;;;21.00;94.90;;;;;;4975803;28;20045;-80
2021/08/30 01:01:06;;;;;;;4.15;2.53;;;21.00;94.90;;;;;;4958174;28;20050;-75
2021/08/30 01:03:32;;;;;;;4.78;3.03;;;21.00;94.90;;;;;;4975060;28;20444;-84
2021/08/30 01:06:23;;;;;;;5.80;2.95;;;21.00;95.20;;;;;;4974851;28;20019;-85
2021/08/30 01:08:59;;;;;;;4.20;2.60;;;21.00;94.90;;;;;;4973002;28;20077;-77
2021/08/30 01:11:30;;;;;;;5.05;2.65;;;21.00;94.90;;;;;;4973620;28;20471;-83
2021/08/30 01:14:01;;;;;;;4.88;2.70;;;21.00;95.00;;;;;;4974605;28;20082;-77
2021/08/30 01:16:27;;;;;;;4.97;2.50;;;21.00;94.90;;;;;;4973977;28;20035;-83
2021/08/30 01:18:59;;;;;;;6.50;3.10;;;21.00;94.90;;;;;;4974702;28;20078;-83
2021/08/30 01:21:31;;;;;;;4.90;2.92;;;21.00;94.90;;;;;;4974757;28;20034;-77
2021/08/30 01:24:15;;;;;;;3.47;2.55;;;21.00;94.90;;;;;;4974456;28;20027;-82
2021/08/30 01:26:49;;;;;;;4.03;2.60;;;21.00;94.90;;;;;;4974579;28;20019;-75
2021/08/30 01:29:17;;;;;;;5.75;2.55;;;21.00;95.00;;;;;;4974128;28;20063;-80
2021/08/30 01:32:04;;;;;;;4.45;2.90;;;21.00;95.00;;;;;;4974184;28;20438;-83
2021/08/30 01:34:30;;;;;;;4.50;2.47;;;20.90;95.00;;;;;;4974628;28;20077;-75
2021/08/30 01:36:57;;;;;;;3.67;2.47;;;21.00;95.00;;;;;;4974268;28;20066;-81
2021/08/30 01:39:30;;;;;;;4.63;3.15;;;21.00;95.00;;;;;;4974408;28;20026;-85
2021/08/30 01:42:00;;;;;;;4.43;2.33;;;21.00;95.00;;;;;;4973812;28;20098;-83
2021/08/30 01:44:27;;;;;;;4.28;2.83;;;20.90;94.90;;;;;;4974439;28;20098;-86
2021/08/30 01:46:53;;;;;;;5.65;3.20;;;21.00;95.00;;;;;;4974567;28;20026;-84
2021/08/30 01:49:22;;;;;;;5.93;2.85;;;20.90;94.90;;;;;;4974437;28;20027;-80
2021/08/30 01:51:48;;;;;;;4.00;2.58;;;21.00;94.90;;;;;;4974118;28;20448;-86
2021/08/30 01:54:16;;;;;;;5.05;3.15;;;21.00;95.00;;;;;;4974382;28;20091;-80
2021/08/30 01:56:47;;;;;;;4.40;2.53;;;20.90;94.90;;;;;;4956512;28;20085;-77
2021/08/30 02:01:59;;;;;;;3.90;2.65;;;20.90;94.90;;;;;;4973840;28;20037;-85
2021/08/30 02:04:25;;;;;;;4.38;2.30;;;20.90;95.00;;;;;;4974003;28;20106;-84
2021/08/30 02:06:51;;;;;;;4.15;2.85;;;21.00;95.00;;;;;;4973585;28;20033;-74
2021/08/30 02:09:17;;;;;;;4.07;2.53;;;20.90;95.00;;;;;;4973830;28;20023;-79
2021/08/30 02:11:42;;;;;;;3.85;2.90;;;21.00;95.10;;;;;;4973561;28;20023;-75
2021/08/30 02:14:08;;;;;;;3.42;2.33;;;20.90;95.00;;;;;;4974118;28;20027;-78
2021/08/30 02:16:37;;;;;;;3.30;2.40;;;20.90;95.00;;;;;;4973309;28;20094;-81
2021/08/30 02:19:12;;;;;;;4.32;2.33;;;20.90;95.00;;;;;;4973469;28;20050;-80
2021/08/30 02:21:41;;;;;;;4.60;2.70;;;20.90;95.00;;;;;;4974124;28;20395;-81
2021/08/30 02:24:21;;;;;;;4.18;2.65;;;20.90;95.00;;;;;;4956616;28;20022;-81
2021/08/30 02:27:07;;;;;;;5.38;2.80;;;20.90;95.00;;;;;;4956098;28;20081;-80
2021/08/30 02:29:42;;;;;;;;;;;20.90;95.00;;;;;;4973994;28;20023;-76
2021/08/30 02:32:08;;;;;;;3.42;2.58;;;20.90;95.00;;;;;;4973837;28;20384;-79
2021/08/30 02:34:37;;;;;;;3.30;2.65;;;20.90;95.00;;;;;;4973387;28;20097;-75
2021/08/30 02:37:04;;;;;;;4.85;3.00;;;20.90;95.00;;;;;;4972933;28;20533;-84
2021/08/30 02:39:30;;;;;;;5.28;3.63;;;20.90;95.30;;;;;;4973226;28;20094;-80
2021/08/30 02:41:59;;;;;;;3.40;2.55;;;20.90;95.00;;;;;;4972819;28;20030;-76
2021/08/30 02:44:24;;;;;;;3.60;2.53;;;20.90;95.00;;;;;;4973280;28;20110;-82
2021/08/30 02:46:50;;;;;;;3.53;2.42;;;20.90;95.10;;;;;;4973109;28;20458;-83
2021/08/30 02:49:16;;;;;;;3.92;2.45;;;20.90;95.10;;;;;;4973567;28;20029;-78
2021/08/30 02:51:43;;;;;;;4.07;2.60;;;20.90;95.10;;;;;;4972999;28;20027;-78
2021/08/30 02:54:10;;;;;;;3.78;2.55;;;20.90;95.10;;;;;;4973165;28;20435;-79
2021/08/30 02:56:39;;;;;;;4.82;2.35;;;20.90;95.10;;;;;;4972364;28;20173;-84
2021/08/30 02:59:05;;;;;;;3.55;2.50;;;20.90;95.10;;;;;;4972685;28;20028;-76
2021/08/30 03:01:32;;;;;;;4.70;2.72;;;20.90;95.10;;;;;;4972797;28;20483;-84
2021/08/30 03:03:58;;;;;;;4.53;3.10;;;20.90;95.10;;;;;;4972563;28;20026;-81
2021/08/30 03:06:25;;;;;;;4.10;2.78;;;20.80;95.10;;;;;;4972492;28;20495;-85
2021/08/30 03:08:51;;;;;;;5.50;2.97;;;20.90;95.00;;;;;;4972593;28;20054;-78
2021/08/30 03:11:18;;;;;;;4.10;2.63;;;20.90;95.00;;;;;;4972857;28;20041;-75
2021/08/30 03:13:46;;;;;;;4.15;2.60;;;20.90;95.00;;;;;;4972478;28;20026;-82
2021/08/30 03:16:13;;;;;;;3.70;2.15;;;20.90;95.00;;;;;;4971133;28;20487;-78
2021/08/30 03:18:40;;;;;;;2.95;2.28;;;20.90;95.10;;;;;;4972937;28;20051;-82
2021/08/30 03:21:07;;;;;;;3.63;2.17;;;20.90;95.10;;;;;;4972451;28;20027;-82
2021/08/30 03:23:35;;;;;;;3.47;2.20;;;20.80;95.10;;;;;;4972568;28;20126;-78
2021/08/30 03:26:02;;;;;;;5.10;2.90;;;20.80;95.10;;;;;;4972197;28;20490;-81
2021/08/30 03:28:29;;;;;;;5.05;3.00;;;20.90;95.10;;;;;;4972606;28;20030;-82
2021/08/30 03:30:55;;;;;;;4.40;2.47;;;20.80;95.10;;;;;;4972377;28;20031;-75
2021/08/30 03:33:21;;;;;;;3.95;2.72;;;20.90;95.10;;;;;;4972477;28;20364;-80
2021/08/30 03:35:48;;;;;;;3.72;2.63;;;20.80;95.10;;;;;;4972053;28;20035;-78
2021/08/30 03:38:14;;;;;;;3.90;2.50;;;20.80;95.10;;;;;;4972332;28;20023;-75
2021/08/30 03:40:42;;;;;;;4.65;2.50;;;20.80;95.10;;;;;;4972734;28;20038;-78
2021/08/30 03:43:09;;;;;;;5.43;2.83;;;20.80;95.10;;;;;;4972481;28;20029;-76
2021/08/30 03:45:36;;;;;;;4.07;2.88;;;20.80;95.10;;;;;;4972408;28;20535;-77
2021/08/30 03:48:03;;;;;;;4.80;2.53;;;20.90;95.10;;;;;;4972177;28;20049;-77
2021/08/30 03:50:30;;;;;;;4.90;2.75;;;20.80;95.10;;;;;;4954816;28;20038;-81
2021/08/30 03:52:57;;;;;;;3.70;2.13;;;20.80;95.10;;;;;;4972129;28;20019;-78
2021/08/30 03:55:22;;;;;;;3.50;2.67;;;20.80;95.10;;;;;;4972349;28;20093;-77
2021/08/30 03:57:52;;;;;;;5.57;2.90;;;20.80;95.10;;;;;;4972215;28;20499;-78
2021/08/30 04:00:18;;;;;;;3.85;2.60;;;20.80;95.10;;;;;;4972536;28;20391;-81
2021/08/30 04:02:45;;;;;;;4.45;2.70;;;20.80;95.10;;;;;;4971897;28;20391;-79
2021/08/30 04:05:18;;;;;;;4.32;2.53;;;20.80;95.10;;;;;;4972211;28;20015;-75
2021/08/30 04:07:44;;;;;;;4.20;2.90;;;20.90;95.10;;;;;;4973328;28;20023;-78
2021/08/30 04:10:10;;;;;;;4.00;3.03;;;20.80;95.10;;;;;;4976311;28;20528;-77
2021/08/30 04:12:36;;;;;;;3.97;2.38;;;20.90;95.10;;;;;;4976101;28;20479;-77
2021/08/30 04:15:03;;;;;;;4.30;2.75;;;20.80;95.10;;;;;;4975651;28;20022;-75
2021/08/30 04:17:28;;;;;;;3.58;2.40;;;20.80;95.10;;;;;;4975839;28;20500;-79
2021/08/30 04:19:54;;;;;;;4.05;2.63;;;20.80;95.10;;;;;;4975517;28;20111;-81
2021/08/30 04:22:20;;;;;;;4.28;2.80;;;20.80;95.10;;;;;;4975774;28;20027;-76
2021/08/30 04:24:45;;;;;;;3.25;2.35;;;20.80;95.10;;;;;;4975514;28;20030;-75
2021/08/30 04:27:12;;;;;;;3.67;2.88;;;20.80;95.10;;;;;;4975672;28;20027;-80
2021/08/30 04:29:38;;;;;;;3.83;2.50;;;20.80;95.10;;;;;;4975934;28;20027;-77
2021/08/30 04:32:06;;;;;;;3.75;2.58;;;20.80;95.10;;;;;;4973954;28;20034;-81
2021/08/30 04:34:32;;;;;;;3.70;2.75;;;20.80;95.10;;;;;;4958250;28;20030;-77
2021/08/30 04:36:58;;;;;;;4.72;2.92;;;20.80;95.20;;;;;;4975355;28;20042;-81
2021/08/30 04:39:23;;;;;;;3.25;2.78;;;20.80;95.20;;;;;;4975517;28;20110;-82
2021/08/30 04:41:49;;;;;;;3.65;2.53;;;20.80;95.20;;;;;;4975077;28;20051;-81
2021/08/30 04:44:15;;;;;;;4.45;2.60;;;20.80;95.20;;;;;;4975580;28;20498;-77
2021/08/30 04:46:41;;;;;;;4.05;2.53;;;20.80;95.20;;;;;;4973979;28;20031;-74
2021/08/30 04:49:07;;;;;;;3.35;2.35;;;20.80;95.20;;;;;;4975514;28;20362;-76
2021/08/30 04:51:32;;;;;;;3.95;2.50;;;20.80;95.20;;;;;;4975184;28;20105;-76
2021/08/30 04:53:58;;;;;;;4.88;2.85;;;20.80;95.10;;;;;;4957592;28;20054;-76
2021/08/30 04:56:23;;;;;;;3.95;2.53;;;20.80;95.10;;;;;;4957548;28;20042;-76
2021/08/30 04:58:49;;;;;;;3.80;2.60;;;20.80;95.20;;;;;;4957447;28;20474;-73
2021/08/30 05:01:15;;;;;;;3.17;2.22;;;20.80;95.10;;;;;;4974572;28;20035;-79
2021/08/30 05:03:40;;;;;;;4.35;2.67;;;20.80;95.10;;;;;;4975264;28;20026;-73
2021/08/30 05:06:06;;;;;;;4.13;2.60;;;20.80;95.10;;;;;;4975377;28;20031;-81
2021/08/30 05:08:32;;;;;;;6.28;3.03;;;20.80;95.20;;;;;;4974817;28;20114;-81
2021/08/30 05:10:57;;;;;;;3.65;2.30;;;20.80;95.10;;;;;;4974713;28;20491;-79
2021/08/30 05:13:23;;;;;;;3.30;2.42;;;20.80;95.10;;;;;;4974841;28;20130;-76
2021/08/30 05:15:49;;;;;;;4.82;2.75;;;20.80;95.10;;;;;;4957078;28;20042;-75
2021/08/30 05:18:15;;;;;;;3.58;2.63;;;20.80;95.10;;;;;;4974181;28;20025;-77
2021/08/30 05:20:41;;;;;;;3.47;2.83;;;20.80;95.10;;;;;;4974619;28;20101;-74
2021/08/30 05:23:06;;;;;;;4.65;2.90;;;20.80;95.20;;;;;;4957738;28;20456;-75
2021/08/30 05:25:32;;;;;;;3.95;2.88;;;20.80;95.10;;;;;;4974967;28;20102;-78
2021/08/30 05:27:58;;;;;;;4.22;2.85;;;20.80;95.10;;;;;;4974400;28;20031;-74
2021/08/30 05:30:23;;;;;;;4.45;2.70;;;20.80;95.20;;;;;;4963953;28;20035;-83
2021/08/30 05:32:50;;;;;;;5.97;2.75;;;20.70;95.10;;;;;;4955094;29;20395;-78
2021/08/30 05:35:15;;;;;;;5.63;2.60;;;20.80;95.10;;;;;;4937866;29;20028;-80
2021/08/30 05:37:41;;;;;;;3.95;2.38;;;20.70;95.10;;;;;;4943573;28;20022;-73
2021/08/30 05:40:07;;;;;;;4.38;2.70;;;20.70;95.10;;;;;;4974627;28;20022;-76
2021/08/30 05:42:33;;;;;;;4.20;2.40;;;20.70;95.10;;;;;;4974163;28;20057;-77
2021/08/30 05:44:58;;;;;;;5.45;3.33;;;20.80;95.10;;;;;;4973927;28;20546;-80
2021/08/30 05:47:24;;;;;;;3.70;2.63;;;20.80;95.10;;;;;;4974259;28;20106;-81
2021/08/30 05:49:50;;;;;;;4.90;2.65;;;20.80;95.10;;;;;;4973928;28;20077;-74
2021/08/30 05:52:16;;;;;;;3.92;3.15;;;20.80;95.20;;;;;;4974063;28;20030;-78
2021/08/30 05:54:41;;;;;;;3.45;2.42;;;20.70;95.20;;;;;;4973871;28;20034;-76
2021/08/30 05:57:07;;;;;;;5.13;2.97;;;20.70;95.20;;;;;;4974029;28;20039;-75
2021/08/30 05:59:33;;;;;;;3.97;2.95;;;20.70;95.10;;;;;;4973947;28;20126;-77
2021/08/30 06:01:58;;;;;;;4.07;3.20;;;20.70;95.10;;;;;;4973741;28;20037;-80
2021/08/30 06:04:24;;;;;;;4.13;2.53;;;20.70;95.10;;;;;;4973905;28;20026;-76
2021/08/30 06:06:50;;;;;;;5.10;2.60;;;20.70;95.10;;;;;;4972371;28;20019;-75
2021/08/30 06:09:15;;;;;;;3.42;2.55;;;20.70;95.10;;;;;;4973853;28;20031;-81
2021/08/30 06:11:41;;;;;;;4.63;2.72;;;20.70;95.10;;;;;;4973070;28;20066;-74
2021/08/30 06:14:07;;;;;;;3.55;2.55;;;20.70;95.10;;;;;;4973846;28;20435;-78
2021/08/30 06:16:33;;;;;;;4.15;2.72;;;20.70;95.10;;;;;;4971877;28;20070;-79
2021/08/30 06:18:58;;;;;;;4.30;2.78;;;20.70;95.10;;;;;;4973392;28;20035;-77
2021/08/30 06:21:24;;;;;;;3.45;2.63;;;20.70;95.10;;;;;;4973541;28;20023;-73
2021/08/30 06:23:50;;;;;;;5.78;3.00;;;20.70;95.10;;;;;;4973101;28;20078;-75
2021/08/30 06:26:16;;;;;;;4.35;2.78;;;20.70;95.10;;;;;;4955779;28;20033;-75
2021/08/30 06:28:41;;;;;;;4.65;2.50;;;20.70;95.20;;;;;;4973108;28;20031;-72
2021/08/30 06:31:07;;;;;;;3.60;2.40;;;20.70;95.20;;;;;;4973671;28;20102;-77
2021/08/30 06:33:33;;;;;;;4.78;2.40;;;20.70;95.20;;;;;;4973379;28;20026;-74
2021/08/30 06:35:59;;;;;;;3.85;2.60;;;20.70;95.20;;;;;;4972974;28;20502;-76
2021/08/30 06:38:24;;;;;;;3.97;3.00;;;20.70;95.30;;;;;;4973182;28;20395;-75
2021/08/30 06:40:50;;;;;;;6.70;4.15;;;20.70;95.30;;;;;;4968546;28;20514;-78
2021/08/30 06:43:16;;;;;;;4.18;3.00;;;20.70;95.50;;;;;;4971410;28;20035;-75
2021/08/30 06:45:41;;;;;;;6.65;3.35;;;20.70;95.40;;;;;;4971899;28;20508;-76
2021/08/30 06:48:07;;;;;;;6.00;3.47;;;20.70;95.50;;;;;;4972079;28;20031;-77
2021/08/30 06:50:32;;;;;;;7.63;3.95;;;20.70;95.50;;;;;;4967593;28;20035;-77
2021/08/30 06:52:58;;;;;;;9.68;5.70;;;20.80;95.60;;;;;;4953681;28;20083;-75
2021/08/30 06:55:24;;;;;;;8.82;4.25;;;20.70;95.70;;;;;;4971903;28;20094;-77
2021/08/30 06:57:49;;;;;;;6.35;4.10;;;20.80;95.70;;;;;;4972090;28;20457;-74
2021/08/30 07:00:18;;;;;;;7.57;4.70;;;20.80;95.80;;;;;;4971711;28;20027;-74
2021/08/30 07:02:45;;;;;;;9.35;4.80;;;20.80;96.00;;;;;;4972117;28;20094;-74
2021/08/30 07:05:11;;;;;;;7.63;4.25;;;20.80;96.10;;;;;;4955855;28;20030;-74
2021/08/30 07:07:37;;;;;;;6.78;4.53;;;20.80;96.30;;;;;;4961015;28;20035;-78
2021/08/30 07:10:03;;;;;;;7.28;4.28;;;20.80;96.10;;;;;;4953159;29;20027;-77
2021/08/30 07:12:29;;;;;;;5.57;3.72;;;20.80;96.30;;;;;;4953457;29;20392;-76
2021/08/30 07:14:55;;;;;;;11.00;5.75;;;20.80;96.30;;;;;;4953115;28;20039;-80
2021/08/30 07:17:21;;;;;;;7.47;4.38;;;20.80;96.20;;;;;;4953370;29;20557;-80
2021/08/30 07:19:46;;;;;;;5.88;4.85;;;20.80;96.30;;;;;;4953154;29;20027;-87
2021/08/30 07:22:13;;;;;;;5.72;4.22;;;20.80;96.20;;;;;;4953374;29;20058;-77
2021/08/30 07:24:39;;;;;;;7.97;4.72;;;20.80;96.00;;;;;;4952441;29;20032;-77
2021/08/30 07:27:05;;;;;;;8.63;5.18;;;20.90;96.20;;;;;;4952745;29;20023;-73
2021/08/30 07:29:31;;;;;;;7.93;5.30;;;20.90;96.10;;;;;;4959204;28;20030;-73
2021/08/30 07:31:57;;;;;;;7.82;4.50;;;20.90;96.00;;;;;;4972721;28;20102;-82
2021/08/30 07:34:24;;;;;;;10.25;5.68;;;20.90;95.90;;;;;;4972007;28;20101;-74
2021/08/30 07:36:54;;;;;;;7.93;4.38;;;20.90;96.00;;;;;;4971060;28;20039;-83
2021/08/30 07:39:20;;;;;;;7.25;4.45;;;20.90;96.30;;;;;;4972506;28;20415;-83
2021/08/30 07:41:47;;;;;;;7.63;4.68;;;20.90;95.90;;;;;;4973887;28;20031;-84
2021/08/30 07:44:13;;;;;;;6.30;4.65;;;20.90;95.90;;;;;;4977868;28;20018;-79
2021/08/30 07:46:38;;;;;;;10.40;5.20;;;20.90;95.90;;;;;;4979081;28;20029;-83
2021/08/30 07:49:04;;;;;;;7.78;4.97;;;20.90;95.90;;;;;;4978322;28;20027;-76
2021/08/30 07:51:33;;;;;;;7.38;4.80;;;20.90;95.90;;;;;;4965035;28;20106;-83
2021/08/30 07:53:59;;;;;;;6.93;4.60;;;20.90;95.90;;;;;;4978068;28;20483;-84
2021/08/30 07:56:25;;;;;;;7.85;4.88;;;20.90;95.90;;;;;;4976461;28;20066;-81
2021/08/30 07:58:51;;;;;;;8.48;4.97;;;20.90;95.80;;;;;;4976770;28;20026;-83
2021/08/30 08:01:16;;;;;;;7.72;5.35;;;20.90;95.80;;;;;;4978386;28;20552;-75
2021/08/30 08:03:42;;;;;;;6.68;4.50;;;20.90;95.80;;;;;;4978339;28;20027;-73
2021/08/30 08:06:07;;;;;;;5.55;4.30;;;21.00;95.70;;;;;;4978970;28;20033;-74
2021/08/30 08:08:33;;;;;;;8.20;4.80;;;21.00;95.70;;;;;;4973517;28;20098;-73
2021/08/30 08:10:59;;;;;;;9.95;4.75;;;21.00;95.60;;;;;;4976571;28;20039;-73
2021/08/30 08:13:26;;;;;;;6.55;4.30;;;21.00;95.60;;;;;;4975211;28;20027;-76
2021/08/30 08:15:52;;;;;;;7.22;4.55;;;21.00;95.60;;;;;;4958998;28;20035;-75
2021/08/30 08:18:18;;;;;;;7.38;4.78;;;21.00;95.60;;;;;;4961885;28;20023;-74
2021/08/30 08:20:44;;;;;;;5.82;4.25;;;21.10;95.50;;;;;;4978224;28;20463;-77
2021/08/30 08:23:10;;;;;;;7.63;4.80;;;21.00;95.50;;;;;;4978780;28;20038;-74
2021/08/30 08:25:36;;;;;;;6.80;4.80;;;21.10;95.50;;;;;;4978481;28;20029;-76
2021/08/30 08:28:06;;;;;;;8.38;4.88;;;21.10;95.50;;;;;;4977384;28;20403;-78
2021/08/30 08:30:33;;;;;;;8.55;5.43;;;21.10;95.50;;;;;;4957695;29;20038;-76
2021/08/30 08:32:59;;;;;;;5.85;4.68;;;21.10;95.40;;;;;;4958901;29;20489;-78
2021/08/30 08:35:24;;;;;;;6.75;5.15;;;21.10;95.30;;;;;;4958974;29;20026;-80
2021/08/30 08:37:50;;;;;;;8.70;5.93;;;21.10;95.30;;;;;;4958715;28;20019;-77
2021/08/30 08:40:16;;;;;;;6.78;5.15;;;21.10;95.40;;;;;;4959047;29;20031;-80
2021/08/30 08:42:44;;;;;;;7.80;4.95;;;21.10;95.40;;;;;;4958607;29;20050;-75
2021/08/30 08:45:12;;;;;;;8.07;4.85;;;21.10;95.40;;;;;;4974640;28;20049;-78
2021/08/30 08:47:40;;;;;;;6.82;5.35;;;21.20;95.40;;;;;;4978149;28;20023;-77
2021/08/30 08:50:07;;;;;;;8.38;4.80;;;21.20;95.30;;;;;;4969219;28;20027;-84
2021/08/30 08:52:36;;;;;;;6.95;5.50;;;21.20;95.40;;;;;;4964763;28;20054;-77
2021/08/30 08:55:03;;;;;;;7.35;5.35;;;21.20;95.60;;;;;;4973364;28;20023;-79
2021/08/30 08:57:29;;;;;;;8.60;5.88;;;21.20;95.40;;;;;;4974455;28;20050;-74
2021/08/30 08:59:59;;;;;;;6.53;5.28;;;21.20;95.30;;;;;;4974940;28;20070;-75
2021/08/30 09:02:28;;;;;;;7.35;5.43;;;21.20;95.40;;;;;;4975115;28;20054;-78
2021/08/30 09:04:55;;;;;;;7.75;5.25;;;21.20;95.20;;;;;;4957315;28;20022;-73
2021/08/30 09:07:35;;;;;;;7.40;5.20;;;21.20;95.20;;;;;;4974955;28;20431;-84
2021/08/30 09:10:03;;;;;;;6.70;4.80;;;21.20;95.20;;;;;;4970132;28;20495;-81
2021/08/30 09:12:28;;;;;;;7.50;4.65;;;21.20;95.30;;;;;;4974844;28;20031;-78
2021/08/30 09:14:55;;;;;;;8.07;5.55;;;21.20;95.30;;;;;;4974523;28;20368;-76
2021/08/30 09:17:21;;;;;;;6.90;5.20;;;21.20;95.30;;;;;;4974779;28;20037;-74
2021/08/30 09:19:54;;;;;;;7.60;5.18;;;21.20;95.20;;;;;;4973556;28;20029;-78
2021/08/30 09:22:31;;;;;;;7.35;5.43;;;21.30;95.20;;;;;;4974666;28;20030;-73
2021/08/30 09:25:05;;;;;;;6.90;5.25;;;21.30;95.20;;;;;;4974408;28;20019;-77
2021/08/30 09:27:36;;;;;;;5.88;4.57;;;21.30;95.10;;;;;;4973456;28;20139;-77
2021/08/30 09:30:05;;;;;;;7.47;5.47;;;21.30;95.00;;;;;;4974386;28;20040;-79
2021/08/30 09:32:34;;;;;;;6.82;5.28;;;21.30;95.00;;;;;;4973204;28;20485;-80
2021/08/30 09:35:02;;;;;;;7.43;6.18;;;21.30;95.00;;;;;;4955774;28;20027;-75
2021/08/30 09:37:28;;;;;;;10.05;6.25;;;21.30;95.00;;;;;;4973124;28;20372;-81
2021/08/30 09:40:02;;;;;;;8.07;5.97;;;21.40;95.00;;;;;;4974069;28;20030;-78
2021/08/30 09:42:28;;;;;;;8.73;5.75;;;21.40;95.00;;;;;;4974135;28;20113;-81
2021/08/30 09:45:05;;;;;;;7.32;5.65;;;21.40;95.10;;;;;;4973701;28;20162;-79
2021/08/30 09:47:31;;;;;;;8.65;5.68;;;21.40;95.00;;;;;;4973434;28;20027;-77
2021/08/30 09:49:57;;;;;;;9.10;5.85;;;21.40;94.90;;;;;;4974052;28;20093;-78
2021/08/30 09:52:23;;;;;;;8.85;6.25;;;21.40;94.90;;;;;;4974120;28;20027;-74
2021/08/30 09:54:50;;;;;;;8.18;6.30;;;21.40;94.90;;;;;;4973854;28;20488;-80
2021/08/30 09:57:17;;;;;;;6.65;5.53;;;21.40;94.90;;;;;;4974331;28;20034;-78
2021/08/30 09:59:44;;;;;;;6.65;5.80;;;21.40;94.90;;;;;;4972807;28;20118;-78
2021/08/30 10:02:14;;;;;;;7.38;5.85;;;21.40;94.90;;;;;;4973897;28;20035;-78
2021/08/30 10:04:41;;;;;;;8.45;5.97;;;21.40;95.00;;;;;;4973606;28;20038;-78
2021/08/30 10:07:08;;;;;;;9.95;6.55;;;21.40;95.00;;;;;;4972724;28;20031;-80
2021/08/30 10:09:34;;;;;;;9.15;5.72;;;21.40;95.00;;;;;;4972845;28;20054;-84
2021/08/30 10:12:00;;;;;;;10.07;6.80;;;21.50;95.10;;;;;;4972266;28;20474;-82
2021/08/30 10:14:28;;;;;;;7.63;6.15;;;21.40;95.00;;;;;;4972522;28;20050;-83
2021/08/30 10:16:56;;;;;;;8.55;5.82;;;21.40;94.90;;;;;;4973434;28;20034;-81
2021/08/30 10:19:59;;;;;;;8.00;6.15;;;21.40;95.00;;;;;;4973076;28;20026;-81
2021/08/30 10:22:26;;;;;;;9.10;5.93;;;21.40;94.90;;;;;;4972706;28;20479;-78
2021/08/30 10:24:52;;;;;;;7.93;6.28;;;21.40;94.90;;;;;;4962148;28;20031;-84
2021/08/30 10:27:34;;;;;;;11.70;6.72;;;21.50;95.00;;;;;;4973576;28;20061;-81
2021/08/30 10:30:10;;;;;;;13.77;6.22;;;21.50;94.90;;;;;;4972273;28;20497;-75
2021/08/30 10:32:44;;;;;;;14.32;6.72;;;21.50;95.10;;;;;;4972883;28;20195;-73
2021/08/30 10:35:15;;;;;;;15.63;6.85;;;21.50;95.50;;;;;;4973309;28;20056;-82
2021/08/30 10:37:51;;;;;;;14.82;7.50;;;21.50;95.70;;;;;;4972342;28;20566;-76
2021/08/30 10:40:20;;;;;;;12.63;6.57;;;21.50;95.60;;;;;;4973282;28;20031;-81
2021/08/30 10:43:09;;;;;;;14.20;7.43;;;21.50;95.90;;;;;;4971465;28;20169;-77
2021/08/30 10:45:58;;;;;;;10.77;6.80;;;21.50;96.00;;;;;;4963866;28;20038;-77
2021/08/30 10:48:34;;;;;;;15.18;7.50;;;21.50;96.40;;;;;;4973161;28;20105;-81
2021/08/30 10:51:14;;;;;;;18.23;7.82;;;21.50;96.50;;;;;;4972066;28;20027;-74
2021/08/30 10:53:40;;;;;;;29.13;11.13;;;21.50;96.90;;;;;;4972854;28;20023;-77
2021/08/30 10:56:10;;;;;;;29.75;11.75;;;21.50;97.40;;;;;;4961811;28;20547;-75
2021/08/30 10:58:37;;;;;;;27.90;12.25;;;21.50;97.30;;;;;;4957785;28;20498;-76
2021/08/30 11:01:13;;;;;;;30.55;11.25;;;21.50;97.30;;;;;;4971560;28;20077;-78
2021/08/30 11:03:40;;;;;;;28.67;12.30;;;21.50;97.20;;;;;;4973117;28;20034;-75
2021/08/30 11:06:15;;;;;;;30.02;11.77;;;21.50;97.30;;;;;;4973074;28;20022;-79
2021/08/30 11:08:43;;;;;;;23.25;10.95;;;21.50;97.40;;;;;;4973267;28;20074;-77
2021/08/30 11:11:14;;;;;;;36.00;13.48;;;21.60;97.00;;;;;;4973165;28;20035;-77
2021/08/30 11:13:43;;;;;;;29.35;12.48;;;21.50;97.50;;;;;;4973136;28;20031;-74
2021/08/30 11:16:23;;;;;;;31.65;12.35;;;21.50;97.40;;;;;;4972731;28;20039;-83
2021/08/30 11:18:55;;;;;;;26.58;12.32;;;21.50;96.90;;;;;;4971473;28;20487;-87
2021/08/30 11:21:46;;;;;;;26.95;10.80;;;21.60;97.20;;;;;;4970976;28;20368;-84
2021/08/30 11:24:24;;;;;;;21.23;10.25;;;21.50;97.10;;;;;;4973005;28;20043;-83
2021/08/30 11:26:50;;;;;;;22.45;10.65;;;21.50;97.20;;;;;;4972666;28;20030;-75
2021/08/30 11:29:16;;;;;;;24.80;11.02;;;21.50;97.50;;;;;;4971313;28;20030;-79
2021/08/30 11:31:42;;;;;;;19.98;10.95;;;21.60;97.20;;;;;;4972385;28;20031;-83
2021/08/30 11:34:24;;;;;;;20.92;10.52;;;21.60;97.10;;;;;;4973172;28;20030;-77
2021/08/30 11:36:51;;;;;;;17.83;9.32;;;21.60;97.10;;;;;;4972639;28;20041;-83
2021/08/30 11:39:20;;;;;;;21.27;10.52;;;21.60;97.20;;;;;;4971906;28;20019;-81
2021/08/30 11:41:54;;;;;;;17.05;9.90;;;21.60;97.10;;;;;;4972578;28;20105;-81
2021/08/30 11:44:20;;;;;;;19.98;10.25;;;21.60;97.10;;;;;;4972843;28;20031;-85
2021/08/30 11:46:49;;;;;;;18.25;9.02;;;21.60;97.10;;;;;;4955713;28;20037;-86
2021/08/30 11:49:16;;;;;;;29.08;9.95;;;21.60;97.10;;;;;;4973173;28;20051;-85
2021/08/30 11:51:45;;;;;;;20.63;10.48;;;21.60;97.10;;;;;;4972586;28;20041;-86
2021/08/30 11:54:15;;;;;;;17.42;9.25;;;21.60;97.00;;;;;;4972762;28;20030;-80
2021/08/30 11:56:49;;;;;;;17.10;9.98;;;21.50;97.00;;;;;;4972828;28;20047;-80
2021/08/30 11:59:24;;;;;;;18.30;9.27;;;21.50;97.10;;;;;;4972982;28;20022;-86
2021/08/30 12:01:50;;;;;;;14.73;8.87;;;;;;;;;;4972316;28;20447;-81
2021/08/30 12:04:17;;;;;;;16.63;9.30;;;21.60;97.30;;;;;;4972997;28;20255;-86
2021/08/30 12:06:52;;;;;;;18.92;9.40;;;21.50;97.20;;;;;;4972771;28;20027;-81
2021/08/30 12:09:19;;;;;;;16.23;8.88;;;21.60;97.10;;;;;;4956683;28;20031;-90
2021/08/30 12:11:49;;;;;;;15.85;9.75;;;21.50;97.10;;;;;;4972827;28;20050;-90
2021/08/30 12:14:16;;;;;;;13.00;8.63;;;21.50;97.10;;;;;;4973038;28;20102;-89
2021/08/30 12:16:45;;;;;;;13.20;8.45;;;21.50;97.00;;;;;;4971676;28;20050;-86
2021/08/30 12:19:10;;;;;;;13.25;8.68;;;21.50;97.00;;;;;;4973543;28;20085;-89
2021/08/30 12:21:38;;;;;;;18.10;9.18;;;21.60;97.00;;;;;;4973482;28;20026;-90
2021/08/30 12:24:08;;;;;;;15.70;9.07;;;21.50;97.10;;;;;;4973027;28;20027;-89
2021/08/30 12:26:35;;;;;;;15.70;8.50;;;21.60;97.00;;;;;;4973072;28;20027;-90
2021/08/30 12:29:02;;;;;;;12.45;8.02;;;21.60;96.90;;;;;;4974758;28;20034;-90
2021/08/30 12:31:31;;;;;;;13.20;8.65;;;21.50;96.80;;;;;;4976832;28;20030;-90
2021/08/30 12:34:07;;;;;;;14.05;8.43;;;21.50;96.80;;;;;;4959188;28;20031;-89
2021/08/30 12:36:34;;;;;;;14.70;8.52;;;21.50;96.80;;;;;;4976617;28;20040;-90
2021/08/30 12:39:00;;;;;;;13.23;8.95;;;21.50;96.80;;;;;;4976332;28;20031;-90
2021/08/30 12:41:26;;;;;;;14.80;8.85;;;21.50;96.80;;;;;;4976260;28;20486;-87
2021/08/30 12:43:52;;;;;;;11.63;8.30;;;21.50;96.80;;;;;;4976271;28;20023;-86
2021/08/30 12:46:18;;;;;;;12.18;8.80;;;21.50;96.70;;;;;;4975333;28;20027;-88
2021/08/30 12:48:43;;;;;;;11.98;8.48;;;21.50;96.80;;;;;;4975839;28;20027;-89
2021/08/30 12:51:10;;;;;;;13.00;8.43;;;21.50;96.80;;;;;;4975545;28;20030;-89
2021/08/30 12:53:36;;;;;;;13.05;8.90;;;21.50;96.80;;;;;;4976265;28;20027;-88